This is the latest recevied weather packets stored in our database for station/object IR4UCA. If no packets are shown the sender has not sent any weather packets the latest 10 day(s).
| Time | Temp. | Humidity | Pressure | Rain* | Wind** | Luminosity | Snow |
|---|---|---|---|---|---|---|---|
| 1777700383 | 10° C | 60% | 1026.4 hPa | 0 mm | - | - | - |
| 1777699786 | 10° C | 60% | 1026.4 hPa | 0 mm | - | - | - |
| 1777699183 | 10° C | 60% | 1026.2 hPa | 0 mm | - | - | - |
| 1777698583 | 10° C | 59% | 1026.1 hPa | 0 mm | - | - | - |
| 1777697985 | 10° C | 58% | 1026 hPa | 0 mm | - | - | - |
| 1777697383 | 10° C | 59% | 1026 hPa | 0 mm | - | - | - |
| 1777696784 | 10° C | 59% | 1026 hPa | 0 mm | - | - | - |
| 1777696185 | 10° C | 59% | 1026.1 hPa | 0 mm | - | - | - |
| 1777669185 | 13.33° C | 50% | 1025.7 hPa | 0 mm | - | - | - |
| 1777668584 | 13.33° C | 51% | 1025.7 hPa | 0 mm | - | - | - |
| 1777667984 | 13.33° C | 50% | 1025.6 hPa | 0 mm | - | - | - |
| 1777667383 | 13.33° C | 50% | 1025.6 hPa | 0 mm | - | - | - |
| 1777666783 | 13.33° C | 49% | 1025.6 hPa | 0 mm | - | - | - |
| 1777666185 | 13.33° C | 50% | 1025.6 hPa | 0 mm | - | - | - |
| 1777665586 | 13.89° C | 50% | 1025.5 hPa | 0 mm | - | - | - |
| 1777664984 | 13.89° C | 50% | 1025.4 hPa | 0 mm | - | - | - |
| 1777664385 | 13.89° C | 50% | 1025.3 hPa | 0 mm | - | - | - |
| 1777663784 | 14.44° C | 48% | 1025.3 hPa | 0 mm | - | - | - |
| 1777663184 | 15° C | 45% | 1025.3 hPa | 0 mm | - | - | - |
| 1777662584 | 15.56° C | 42% | 1025.2 hPa | 0 mm | - | - | - |
| 1777661991 | 16.11° C | 42% | 1025.1 hPa | 0 mm | - | - | - |
| 1777661383 | 17.22° C | 39% | 1025 hPa | 0 mm | - | - | - |
| 1777660784 | 17.78° C | 36% | 1024.9 hPa | 0 mm | - | - | - |
| 1777660186 | 18.33° C | 34% | 1024.9 hPa | 0 mm | - | - | - |
| 1777659583 | 18.33° C | 34% | 1024.9 hPa | 0 mm | - | - | - |
* Rain latest hour (hover to see other rain measurements)
** Current wind speed in m/s (hover to see current wind gust speed)